sensor_id;sensor_type;location;lat;lon;timestamp;pressure;altitude;pressure_sealevel;temperature;humidity
9257;BME280;4665;51.368;6.782;2023-02-12T00:00:39;103547.81;;;6.58;100.00
9257;BME280;4665;51.368;6.782;2023-02-12T00:03:05;103554.88;;;6.59;100.00
9257;BME280;4665;51.368;6.782;2023-02-12T00:05:31;103551.28;;;6.60;100.00
9257;BME280;4665;51.368;6.782;2023-02-12T00:07:56;103554.97;;;6.56;100.00
9257;BME280;4665;51.368;6.782;2023-02-12T00:10:23;103554.06;;;6.57;100.00
9257;BME280;4665;51.368;6.782;2023-02-12T00:12:48;103554.06;;;6.57;100.00
9257;BME280;4665;51.368;6.782;2023-02-12T00:15:14;103550.59;;;6.55;100.00
9257;BME280;4665;51.368;6.782;2023-02-12T00:17:39;103549.81;;;6.53;100.00
9257;BME280;4665;51.368;6.782;2023-02-12T00:20:05;103550.72;;;6.52;100.00
9257;BME280;4665;51.368;6.782;2023-02-12T00:22:31;103555.22;;;6.50;100.00
9257;BME280;4665;51.368;6.782;2023-02-12T00:24:57;103551.88;;;6.45;100.00
9257;BME280;4665;51.368;6.782;2023-02-12T00:27:23;103554.47;;;6.46;100.00
9257;BME280;4665;51.368;6.782;2023-02-12T00:29:48;103550.13;;;6.45;100.00
9257;BME280;4665;51.368;6.782;2023-02-12T00:32:14;103559.81;;;6.45;100.00
9257;BME280;4665;51.368;6.782;2023-02-12T00:34:45;103555.59;;;6.41;100.00
9257;BME280;4665;51.368;6.782;2023-02-12T00:37:10;103552.88;;;6.42;100.00
9257;BME280;4665;51.368;6.782;2023-02-12T00:39:36;103552.75;;;6.45;100.00
9257;BME280;4665;51.368;6.782;2023-02-12T00:42:02;103557.97;;;6.47;100.00
9257;BME280;4665;51.368;6.782;2023-02-12T00:44:28;103559.72;;;6.48;100.00
9257;BME280;4665;51.368;6.782;2023-02-12T00:46:53;103553.63;;;6.46;100.00
9257;BME280;4665;51.368;6.782;2023-02-12T00:49:19;103550.22;;;6.42;100.00
9257;BME280;4665;51.368;6.782;2023-02-12T00:51:44;103558.97;;;6.44;100.00
9257;BME280;4665;51.368;6.782;2023-02-12T00:54:10;103557.16;;;6.45;100.00
9257;BME280;4665;51.368;6.782;2023-02-12T00:56:35;103553.72;;;6.43;100.00
9257;BME280;4665;51.368;6.782;2023-02-12T00:59:01;103560.81;;;6.42;100.00
9257;BME280;4665;51.368;6.782;2023-02-12T01:01:26;103552.00;;;6.42;100.00
9257;BME280;4665;51.368;6.782;2023-02-12T01:03:52;103550.34;;;6.39;100.00
9257;BME280;4665;51.368;6.782;2023-02-12T01:06:17;103550.38;;;6.38;100.00
9257;BME280;4665;51.368;6.782;2023-02-12T01:08:42;103546.94;;;6.36;100.00
9257;BME280;4665;51.368;6.782;2023-02-12T01:11:11;103551.47;;;6.34;100.00
9257;BME280;4665;51.368;6.782;2023-02-12T01:13:37;103550.53;;;6.35;100.00
9257;BME280;4665;51.368;6.782;2023-02-12T01:18:34;103548.72;;;6.35;100.00
9257;BME280;4665;51.368;6.782;2023-02-12T01:20:59;103540.66;;;6.38;100.00
9257;BME280;4665;51.368;6.782;2023-02-12T01:23:25;103536.34;;;6.36;100.00
9257;BME280;4665;51.368;6.782;2023-02-12T01:25:51;103537.28;;;6.35;100.00
9257;BME280;4665;51.368;6.782;2023-02-12T01:28:17;103538.94;;;6.37;100.00
9257;BME280;4665;51.368;6.782;2023-02-12T01:30:42;103540.75;;;6.37;100.00
9257;BME280;4665;51.368;6.782;2023-02-12T01:33:07;103541.66;;;6.36;100.00
9257;BME280;4665;51.368;6.782;2023-02-12T01:35:33;103542.53;;;6.36;100.00
9257;BME280;4665;51.368;6.782;2023-02-12T01:37:58;103543.38;;;6.37;100.00
9257;BME280;4665;51.368;6.782;2023-02-12T01:40:24;103539.81;;;6.38;100.00
9257;BME280;4665;51.368;6.782;2023-02-12T01:42:49;103549.53;;;6.37;100.00
9257;BME280;4665;51.368;6.782;2023-02-12T01:47:42;103539.88;;;6.36;100.00
9257;BME280;4665;51.368;6.782;2023-02-12T01:50:11;103545.09;;;6.38;100.00
9257;BME280;4665;51.368;6.782;2023-02-12T01:52:38;103541.72;;;6.34;100.00
9257;BME280;4665;51.368;6.782;2023-02-12T01:55:08;103539.94;;;6.35;100.00
9257;BME280;4665;51.368;6.782;2023-02-12T01:57:38;103539.94;;;6.35;100.00
9257;BME280;4665;51.368;6.782;2023-02-12T02:00:11;103539.13;;;6.32;100.00
9257;BME280;4665;51.368;6.782;2023-02-12T02:02:37;103538.22;;;6.34;100.00
9257;BME280;4665;51.368;6.782;2023-02-12T02:05:04;103533.78;;;6.34;100.00
9257;BME280;4665;51.368;6.782;2023-02-12T02:07:30;103534.63;;;6.35;100.00
9257;BME280;4665;51.368;6.782;2023-02-12T02:09:56;103538.22;;;6.34;100.00
9257;BME280;4665;51.368;6.782;2023-02-12T02:12:23;103527.63;;;6.34;100.00
9257;BME280;4665;51.368;6.782;2023-02-12T02:15:08;103531.13;;;6.34;100.00
9257;BME280;4665;51.368;6.782;2023-02-12T02:26:01;103519.88;;;6.29;100.00
9257;BME280;4665;51.368;6.782;2023-02-12T02:34:15;103512.78;;;6.29;100.00
9257;BME280;4665;51.368;6.782;2023-02-12T02:39:59;103516.50;;;6.24;100.00
9257;BME280;4665;51.368;6.782;2023-02-12T02:42:33;103516.59;;;6.22;100.00
9257;BME280;4665;51.368;6.782;2023-02-12T02:45:18;103506.03;;;6.21;100.00
9257;BME280;4665;51.368;6.782;2023-02-12T02:47:52;103521.88;;;6.22;100.00
9257;BME280;4665;51.368;6.782;2023-02-12T02:50:24;103503.41;;;6.21;100.00
9257;BME280;4665;51.368;6.782;2023-02-12T02:53:07;103512.19;;;6.21;100.00
9257;BME280;4665;51.368;6.782;2023-02-12T02:55:39;103510.34;;;6.23;100.00
9257;BME280;4665;51.368;6.782;2023-02-12T02:58:26;103519.09;;;6.25;100.00
9257;BME280;4665;51.368;6.782;2023-02-12T03:01:13;103518.16;;;6.26;100.00
9257;BME280;4665;51.368;6.782;2023-02-12T03:04:07;103513.81;;;6.25;100.00
9257;BME280;4665;51.368;6.782;2023-02-12T03:06:49;103508.50;;;6.25;100.00
9257;BME280;4665;51.368;6.782;2023-02-12T03:09:26;103520.81;;;6.26;100.00
9257;BME280;4665;51.368;6.782;2023-02-12T03:11:56;103508.56;;;6.24;100.00
9257;BME280;4665;51.368;6.782;2023-02-12T03:14:31;103516.59;;;6.22;100.00
9257;BME280;4665;51.368;6.782;2023-02-12T03:17:15;103517.63;;;6.18;100.00
9257;BME280;4665;51.368;6.782;2023-02-12T03:19:46;103517.75;;;6.15;100.00
9257;BME280;4665;51.368;6.782;2023-02-12T03:22:20;103515.28;;;6.10;100.00
9257;BME280;4665;51.368;6.782;2023-02-12T03:24:53;103512.56;;;6.12;100.00
9257;BME280;4665;51.368;6.782;2023-02-12T03:27:31;103511.00;;;6.06;100.00
9257;BME280;4665;51.368;6.782;2023-02-12T03:29:58;103517.22;;;6.05;100.00
9257;BME280;4665;51.368;6.782;2023-02-12T03:35:14;103516.47;;;6.02;100.00
9257;BME280;4665;51.368;6.782;2023-02-12T03:48:05;103523.78;;;5.95;100.00
9257;BME280;4665;51.368;6.782;2023-02-12T03:53:01;103514.00;;;5.97;100.00
9257;BME280;4665;51.368;6.782;2023-02-12T03:55:29;103514.88;;;5.98;100.00
9257;BME280;4665;51.368;6.782;2023-02-12T03:57:59;103511.50;;;5.93;100.00
9257;BME280;4665;51.368;6.782;2023-02-12T04:00:26;103521.31;;;5.89;100.00
9257;BME280;4665;51.368;6.782;2023-02-12T04:02:53;103520.66;;;5.84;100.00
9257;BME280;4665;51.368;6.782;2023-02-12T04:05:23;103512.66;;;5.85;100.00
9257;BME280;4665;51.368;6.782;2023-02-12T04:07:50;103525.88;;;5.85;100.00
9257;BME280;4665;51.368;6.782;2023-02-12T04:10:17;103528.53;;;5.85;100.00
9257;BME280;4665;51.368;6.782;2023-02-12T04:12:52;103532.09;;;5.84;100.00
9257;BME280;4665;51.368;6.782;2023-02-12T04:17:55;103521.50;;;5.84;100.00
9257;BME280;4665;51.368;6.782;2023-02-12T04:26:51;103543.25;;;5.93;100.00
9257;BME280;4665;51.368;6.782;2023-02-12T04:37:17;103555.69;;;5.90;100.00
9257;BME280;4665;51.368;6.782;2023-02-12T04:39:43;103552.09;;;5.91;100.00
9257;BME280;4665;51.368;6.782;2023-02-12T04:42:10;103553.75;;;5.96;100.00
9257;BME280;4665;51.368;6.782;2023-02-12T04:44:41;103557.22;;;5.98;100.00
9257;BME280;4665;51.368;6.782;2023-02-12T04:47:08;103566.00;;;5.98;100.00
9257;BME280;4665;51.368;6.782;2023-02-12T04:49:34;103561.69;;;5.96;100.00
9257;BME280;4665;51.368;6.782;2023-02-12T04:52:00;103565.09;;;5.99;100.00
9257;BME280;4665;51.368;6.782;2023-02-12T04:54:25;103576.44;;;6.03;100.00
9257;BME280;4665;51.368;6.782;2023-02-12T04:56:51;103569.28;;;6.05;100.00
9257;BME280;4665;51.368;6.782;2023-02-12T04:59:16;103571.03;;;6.06;100.00
9257;BME280;4665;51.368;6.782;2023-02-12T05:01:42;103569.41;;;6.02;100.00
9257;BME280;4665;51.368;6.782;2023-02-12T05:04:10;103566.69;;;6.03;100.00
9257;BME280;4665;51.368;6.782;2023-02-12T05:06:37;103571.13;;;6.03;100.00
9257;BME280;4665;51.368;6.782;2023-02-12T05:09:04;103566.78;;;6.02;100.00
9257;BME280;4665;51.368;6.782;2023-02-12T05:11:29;103567.91;;;5.95;100.00
9257;BME280;4665;51.368;6.782;2023-02-12T05:13:55;103567.91;;;5.95;100.00
9257;BME280;4665;51.368;6.782;2023-02-12T05:16:21;103559.13;;;5.93;100.00
9257;BME280;4665;51.368;6.782;2023-02-12T05:18:47;103566.25;;;5.90;100.00
9257;BME280;4665;51.368;6.782;2023-02-12T05:21:12;103571.44;;;5.94;100.00
9257;BME280;4665;51.368;6.782;2023-02-12T05:23:39;103580.31;;;5.93;100.00
9257;BME280;4665;51.368;6.782;2023-02-12T05:26:08;103579.44;;;5.92;100.00
9257;BME280;4665;51.368;6.782;2023-02-12T05:28:34;103577.72;;;5.91;100.00
9257;BME280;4665;51.368;6.782;2023-02-12T05:31:01;103580.31;;;5.93;100.00
9257;BME280;4665;51.368;6.782;2023-02-12T05:33:27;103583.00;;;5.91;100.00
9257;BME280;4665;51.368;6.782;2023-02-12T05:35:53;103587.56;;;5.87;100.00
9257;BME280;4665;51.368;6.782;2023-02-12T05:38:19;103582.19;;;5.89;100.00
9257;BME280;4665;51.368;6.782;2023-02-12T05:40:45;103585.72;;;5.89;100.00
9257;BME280;4665;51.368;6.782;2023-02-12T05:43:11;103596.41;;;5.86;100.00
9257;BME280;4665;51.368;6.782;2023-02-12T05:45:36;103578.91;;;5.82;100.00
9257;BME280;4665;51.368;6.782;2023-02-12T05:48:02;103580.69;;;5.82;100.00
9257;BME280;4665;51.368;6.782;2023-02-12T05:50:28;103586.78;;;5.84;100.00
9257;BME280;4665;51.368;6.782;2023-02-12T05:52:53;103587.66;;;5.84;100.00
9257;BME280;4665;51.368;6.782;2023-02-12T05:55:19;103582.47;;;5.81;100.00
9257;BME280;4665;51.368;6.782;2023-02-12T05:57:44;103584.19;;;5.82;100.00
9257;BME280;4665;51.368;6.782;2023-02-12T06:00:10;103591.28;;;5.82;100.00
9257;BME280;4665;51.368;6.782;2023-02-12T06:02:36;103581.72;;;5.78;100.00
9257;BME280;4665;51.368;6.782;2023-02-12T06:05:02;103586.16;;;5.77;100.00
9257;BME280;4665;51.368;6.782;2023-02-12T06:07:27;103582.59;;;5.78;100.00
9257;BME280;4665;51.368;6.782;2023-02-12T06:09:53;103579.22;;;5.73;100.00
9257;BME280;4665;51.368;6.782;2023-02-12T06:12:19;103588.91;;;5.74;100.00
9257;BME280;4665;51.368;6.782;2023-02-12T06:14:45;103587.16;;;5.73;100.00
9257;BME280;4665;51.368;6.782;2023-02-12T06:17:11;103590.69;;;5.74;100.00
9257;BME280;4665;51.368;6.782;2023-02-12T06:19:36;103588.06;;;5.74;100.00
9257;BME280;4665;51.368;6.782;2023-02-12T06:22:02;103584.44;;;5.76;100.00
9257;BME280;4665;51.368;6.782;2023-02-12T06:24:27;103580.94;;;5.76;100.00
9257;BME280;4665;51.368;6.782;2023-02-12T06:26:53;103592.41;;;5.75;100.00
9257;BME280;4665;51.368;6.782;2023-02-12T06:29:19;103595.19;;;5.72;100.00
9257;BME280;4665;51.368;6.782;2023-02-12T06:31:44;103587.28;;;5.70;100.00
9257;BME280;4665;51.368;6.782;2023-02-12T06:34:12;103597.81;;;5.72;100.00
9257;BME280;4665;51.368;6.782;2023-02-12T06:36:40;103596.03;;;5.72;100.00
9257;BME280;4665;51.368;6.782;2023-02-12T06:39:06;103598.69;;;5.72;100.00
9257;BME280;4665;51.368;6.782;2023-02-12T06:41:32;103593.38;;;5.72;100.00
9257;BME280;4665;51.368;6.782;2023-02-12T06:43:58;103600.34;;;5.75;100.00
9257;BME280;4665;51.368;6.782;2023-02-12T06:46:24;103607.53;;;5.71;100.00
9257;BME280;4665;51.368;6.782;2023-02-12T06:48:58;103607.53;;;5.71;100.00
9257;BME280;4665;51.368;6.782;2023-02-12T06:51:24;103604.94;;;5.69;100.00
9257;BME280;4665;51.368;6.782;2023-02-12T07:00:29;103602.31;;;5.69;100.00
9257;BME280;4665;51.368;6.782;2023-02-12T07:03:06;103604.94;;;5.69;100.00
9257;BME280;4665;51.368;6.782;2023-02-12T07:05:31;103611.06;;;5.72;100.00
9257;BME280;4665;51.368;6.782;2023-02-12T07:07:57;103616.25;;;5.73;100.00
9257;BME280;4665;51.368;6.782;2023-02-12T07:13:36;103617.88;;;5.77;100.00
9257;BME280;4665;51.368;6.782;2023-02-12T07:16:30;103619.63;;;5.78;100.00
9257;BME280;4665;51.368;6.782;2023-02-12T07:18:56;103625.81;;;5.77;100.00
9257;BME280;4665;51.368;6.782;2023-02-12T07:21:27;103611.75;;;5.77;100.00
9257;BME280;4665;51.368;6.782;2023-02-12T07:23:53;103623.94;;;5.81;100.00
9257;BME280;4665;51.368;6.782;2023-02-12T07:26:20;103626.53;;;5.82;100.00
9257;BME280;4665;51.368;6.782;2023-02-12T07:28:45;103623.78;;;5.85;100.00
9257;BME280;4665;51.368;6.782;2023-02-12T07:31:13;103627.19;;;5.89;100.00
9257;BME280;4665;51.368;6.782;2023-02-12T07:33:40;103626.19;;;5.91;100.00
9257;BME280;4665;51.368;6.782;2023-02-12T07:39:13;103627.00;;;5.94;100.00
9257;BME280;4665;51.368;6.782;2023-02-12T07:41:43;103627.69;;;6.00;100.00
9257;BME280;4665;51.368;6.782;2023-02-12T07:44:10;103632.94;;;6.02;100.00
9257;BME280;4665;51.368;6.782;2023-02-12T07:46:48;103632.88;;;6.03;100.00
9257;BME280;4665;51.368;6.782;2023-02-12T07:49:16;103631.09;;;6.04;100.00
9257;BME280;4665;51.368;6.782;2023-02-12T07:54:47;103644.97;;;6.10;100.00
9257;BME280;4665;51.368;6.782;2023-02-12T08:00:16;103646.66;;;6.13;100.00
9257;BME280;4665;51.368;6.782;2023-02-12T08:02:42;103646.53;;;6.16;100.00
9257;BME280;4665;51.368;6.782;2023-02-12T08:05:07;103641.28;;;6.15;100.00
9257;BME280;4665;51.368;6.782;2023-02-12T08:10:42;103655.06;;;6.24;100.00
9257;BME280;4665;51.368;6.782;2023-02-12T08:13:14;103657.66;;;6.26;100.00
9257;BME280;4665;51.368;6.782;2023-02-12T08:15:39;103651.38;;;6.28;100.00
9257;BME280;4665;51.368;6.782;2023-02-12T08:21:16;103663.59;;;6.32;100.00
9257;BME280;4665;51.368;6.782;2023-02-12T08:23:44;103662.69;;;6.34;100.00
9257;BME280;4665;51.368;6.782;2023-02-12T08:26:12;103653.00;;;6.32;100.00
9257;BME280;4665;51.368;6.782;2023-02-12T08:28:59;103660.75;;;6.37;100.00
9257;BME280;4665;51.368;6.782;2023-02-12T08:31:28;103669.56;;;6.38;100.00
9257;BME280;4665;51.368;6.782;2023-02-12T08:34:20;103666.81;;;6.41;100.00
9257;BME280;4665;51.368;6.782;2023-02-12T08:36:47;103673.84;;;6.42;100.00
9257;BME280;4665;51.368;6.782;2023-02-12T08:39:13;103677.28;;;6.44;100.00
9257;BME280;4665;51.368;6.782;2023-02-12T08:41:41;103686.06;;;6.46;100.00
9257;BME280;4665;51.368;6.782;2023-02-12T08:44:07;103677.16;;;6.47;100.00
9257;BME280;4665;51.368;6.782;2023-02-12T08:46:46;103678.78;;;6.51;100.00
9257;BME280;4665;51.368;6.782;2023-02-12T08:49:15;103672.63;;;6.50;100.00
9257;BME280;4665;51.368;6.782;2023-02-12T08:51:48;103673.31;;;6.56;100.00
9257;BME280;4665;51.368;6.782;2023-02-12T08:54:22;103680.28;;;6.58;100.00
9257;BME280;4665;51.368;6.782;2023-02-12T08:57:25;103682.88;;;6.60;100.00
9257;BME280;4665;51.368;6.782;2023-02-12T08:59:50;103679.31;;;6.61;100.00
9257;BME280;4665;51.368;6.782;2023-02-12T09:05:39;103680.78;;;6.68;100.00
9257;BME280;4665;51.368;6.782;2023-02-12T09:08:05;103683.28;;;6.72;100.00
9257;BME280;4665;51.368;6.782;2023-02-12T09:10:31;103677.97;;;6.72;100.00
9257;BME280;4665;51.368;6.782;2023-02-12T09:13:22;103685.56;;;6.82;100.00
9257;BME280;4665;51.368;6.782;2023-02-12T09:15:48;103685.38;;;6.86;100.00
9257;BME280;4665;51.368;6.782;2023-02-12T09:18:16;103672.91;;;6.90;100.00
9257;BME280;4665;51.368;6.782;2023-02-12T09:20:43;103671.91;;;6.92;100.00
9257;BME280;4665;51.368;6.782;2023-02-12T09:23:43;103686.94;;;6.92;100.00
9257;BME280;4665;51.368;6.782;2023-02-12T09:26:12;103679.63;;;6.99;100.00
9257;BME280;4665;51.368;6.782;2023-02-12T09:31:38;103681.84;;;7.09;100.00
9257;BME280;4665;51.368;6.782;2023-02-12T09:34:10;103693.91;;;7.16;100.00
9257;BME280;4665;51.368;6.782;2023-02-12T09:36:35;103684.16;;;7.17;100.00
9257;BME280;4665;51.368;6.782;2023-02-12T09:39:13;103679.47;;;7.24;100.00
9257;BME280;4665;51.368;6.782;2023-02-12T09:41:45;103672.59;;;7.20;100.00
9257;BME280;4665;51.368;6.782;2023-02-12T09:44:34;103671.66;;;7.21;100.00
9257;BME280;4665;51.368;6.782;2023-02-12T09:47:52;103679.28;;;7.28;100.00
9257;BME280;4665;51.368;6.782;2023-02-12T09:53:17;103673.56;;;7.39;100.00
9257;BME280;4665;51.368;6.782;2023-02-12T09:55:44;103675.03;;;7.46;100.00
9257;BME280;4665;51.368;6.782;2023-02-12T10:01:26;103685.41;;;7.52;100.00
9257;BME280;4665;51.368;6.782;2023-02-12T10:10:20;103678.53;;;7.69;100.00
9257;BME280;4665;51.368;6.782;2023-02-12T10:16:11;103683.50;;;7.76;100.00
9257;BME280;4665;51.368;6.782;2023-02-12T10:21:21;103673.72;;;7.77;100.00
9257;BME280;4665;51.368;6.782;2023-02-12T10:27:56;103669.47;;;7.93;100.00
9257;BME280;4665;51.368;6.782;2023-02-12T10:33:51;103672.69;;;8.01;100.00
9257;BME280;4665;51.368;6.782;2023-02-12T10:39:35;103670.66;;;8.07;100.00
9257;BME280;4665;51.368;6.782;2023-02-12T10:42:13;103670.53;;;8.10;100.00
9257;BME280;4665;51.368;6.782;2023-02-12T10:44:40;103669.66;;;8.09;100.00
9257;BME280;4665;51.368;6.782;2023-02-12T10:53:51;103661.25;;;8.20;100.00
9257;BME280;4665;51.368;6.782;2023-02-12T10:56:20;103654.06;;;8.22;100.00
9257;BME280;4665;51.368;6.782;2023-02-12T11:05:35;103653.34;;;8.37;100.00
9257;BME280;4665;51.368;6.782;2023-02-12T11:08:01;103656.78;;;8.41;100.00
9257;BME280;4665;51.368;6.782;2023-02-12T11:10:51;103646.09;;;8.42;100.00
9257;BME280;4665;51.368;6.782;2023-02-12T11:13:25;103642.63;;;8.40;100.00
9257;BME280;4665;51.368;6.782;2023-02-12T11:15:53;103632.81;;;8.42;100.00
9257;BME280;4665;51.368;6.782;2023-02-12T11:18:24;103637.97;;;8.46;100.00
9257;BME280;4665;51.368;6.782;2023-02-12T11:21:05;103636.09;;;8.48;100.00
9257;BME280;4665;51.368;6.782;2023-02-12T11:31:40;103632.16;;;8.56;100.00
9257;BME280;4665;51.368;6.782;2023-02-12T11:34:14;103617.06;;;8.57;100.00
9257;BME280;4665;51.368;6.782;2023-02-12T11:36:47;103620.53;;;8.59;100.00
9257;BME280;4665;51.368;6.782;2023-02-12T11:39:33;103609.72;;;8.62;100.00
9257;BME280;4665;51.368;6.782;2023-02-12T11:45:17;103611.38;;;8.64;100.00
9257;BME280;4665;51.368;6.782;2023-02-12T11:47:45;103605.84;;;8.69;100.00
9257;BME280;4665;51.368;6.782;2023-02-12T11:50:34;103614.59;;;8.71;100.00
9257;BME280;4665;51.368;6.782;2023-02-12T11:53:07;103612.75;;;8.73;100.00
9257;BME280;4665;51.368;6.782;2023-02-12T11:55:52;103611.78;;;8.74;100.00
9257;BME280;4665;51.368;6.782;2023-02-12T11:58:23;103604.91;;;8.70;100.00
9257;BME280;4665;51.368;6.782;2023-02-12T12:10:12;103600.09;;;8.78;100.00
9257;BME280;4665;51.368;6.782;2023-02-12T12:12:47;103589.28;;;8.81;100.00
9257;BME280;4665;51.368;6.782;2023-02-12T12:15:22;103584.88;;;8.82;100.00
9257;BME280;4665;51.368;6.782;2023-02-12T12:18:32;103597.13;;;8.84;100.00
9257;BME280;4665;51.368;6.782;2023-02-12T12:24:37;103596.91;;;8.89;100.00
9257;BME280;4665;51.368;6.782;2023-02-12T12:48:30;103568.53;;;8.90;100.00
9257;BME280;4665;51.368;6.782;2023-02-12T13:05:45;103545.44;;;8.90;100.00
9257;BME280;4665;51.368;6.782;2023-02-12T13:15:18;103531.94;;;8.95;100.00
9257;BME280;4665;51.368;6.782;2023-02-12T13:17:54;103529.44;;;8.92;100.00
9257;BME280;4665;51.368;6.782;2023-02-12T13:24:02;103517.06;;;8.91;100.00
9257;BME280;4665;51.368;6.782;2023-02-12T13:27:15;103509.06;;;8.91;100.00
9257;BME280;4665;51.368;6.782;2023-02-12T13:35:30;103512.38;;;8.96;100.00
9257;BME280;4665;51.368;6.782;2023-02-12T13:38:15;103519.41;;;8.97;100.00
9257;BME280;4665;51.368;6.782;2023-02-12T13:40:43;103511.38;;;8.98;100.00
9257;BME280;4665;51.368;6.782;2023-02-12T13:46:29;103510.47;;;8.98;100.00
9257;BME280;4665;51.368;6.782;2023-02-12T13:49:36;103515.56;;;9.02;100.00
9257;BME280;4665;51.368;6.782;2023-02-12T13:52:32;103511.38;;;8.98;100.00
9257;BME280;4665;51.368;6.782;2023-02-12T13:55:45;103508.47;;;9.03;100.00
9257;BME280;4665;51.368;6.782;2023-02-12T14:01:37;103509.41;;;9.02;100.00
9257;BME280;4665;51.368;6.782;2023-02-12T14:07:12;103488.59;;;8.93;100.00
9257;BME280;4665;51.368;6.782;2023-02-12T14:10:04;103493.00;;;8.94;100.00
9257;BME280;4665;51.368;6.782;2023-02-12T14:12:36;103505.03;;;9.01;100.00
9257;BME280;4665;51.368;6.782;2023-02-12T14:20:32;103517.38;;;9.02;100.00
9257;BME280;4665;51.368;6.782;2023-02-12T14:25:55;103513.94;;;9.00;100.00
9257;BME280;4665;51.368;6.782;2023-02-12T14:28:40;103506.91;;;8.99;100.00
9257;BME280;4665;51.368;6.782;2023-02-12T14:33:47;103506.91;;;8.99;100.00
9257;BME280;4665;51.368;6.782;2023-02-12T14:36:17;103514.78;;;9.00;100.00
9257;BME280;4665;51.368;6.782;2023-02-12T14:41:32;103503.47;;;8.97;100.00
9257;BME280;4665;51.368;6.782;2023-02-12T14:46:49;103510.34;;;9.01;100.00
9257;BME280;4665;51.368;6.782;2023-02-12T14:49:35;103507.69;;;9.01;100.00
9257;BME280;4665;51.368;6.782;2023-02-12T14:54:54;103506.13;;;8.97;100.00
9257;BME280;4665;51.368;6.782;2023-02-12T14:57:28;103509.56;;;8.99;100.00
9257;BME280;4665;51.368;6.782;2023-02-12T14:59:58;103508.78;;;8.97;100.00
9257;BME280;4665;51.368;6.782;2023-02-12T15:02:28;103502.75;;;8.93;100.00
9257;BME280;4665;51.368;6.782;2023-02-12T15:05:11;103515.03;;;8.96;100.00
9257;BME280;4665;51.368;6.782;2023-02-12T15:07:43;103507.13;;;8.94;100.00
9257;BME280;4665;51.368;6.782;2023-02-12T15:10:21;103504.66;;;8.91;100.00
9257;BME280;4665;51.368;6.782;2023-02-12T15:12:52;103504.53;;;8.93;100.00
9257;BME280;4665;51.368;6.782;2023-02-12T15:15:32;103492.50;;;8.85;100.00
9257;BME280;4665;51.368;6.782;2023-02-12T15:18:06;103499.38;;;8.90;100.00
9257;BME280;4665;51.368;6.782;2023-02-12T15:20:49;103495.78;;;8.91;100.00
9257;BME280;4665;51.368;6.782;2023-02-12T15:23:35;103495.00;;;8.89;100.00
9257;BME280;4665;51.368;6.782;2023-02-12T15:26:03;103478.59;;;8.80;100.00
9257;BME280;4665;51.368;6.782;2023-02-12T15:28:31;103469.19;;;8.73;100.00
9257;BME280;4665;51.368;6.782;2023-02-12T15:31:00;103488.13;;;8.84;100.00
9257;BME280;4665;51.368;6.782;2023-02-12T15:33:34;103473.50;;;8.76;100.00
9257;BME280;4665;51.368;6.782;2023-02-12T15:36:02;103481.09;;;8.83;100.00
9257;BME280;4665;51.368;6.782;2023-02-12T15:38:36;103458.69;;;8.70;100.00
9257;BME280;4665;51.368;6.782;2023-02-12T15:41:04;103457.00;;;8.69;100.00
9257;BME280;4665;51.368;6.782;2023-02-12T15:43:33;103478.53;;;8.82;100.00
9257;BME280;4665;51.368;6.782;2023-02-12T15:46:01;103468.34;;;8.73;100.00
9257;BME280;4665;51.368;6.782;2023-02-12T15:48:30;103458.00;;;8.67;100.00
9257;BME280;4665;51.368;6.782;2023-02-12T15:53:31;103451.84;;;8.66;100.00
9257;BME280;4665;51.368;6.782;2023-02-12T15:55:57;103457.00;;;8.69;100.00
9257;BME280;4665;51.368;6.782;2023-02-12T15:58:26;103451.13;;;8.62;100.00
9257;BME280;4665;51.368;6.782;2023-02-12T16:00:54;103444.97;;;8.62;100.00
9257;BME280;4665;51.368;6.782;2023-02-12T16:03:29;103462.16;;;8.72;100.00
9257;BME280;4665;51.368;6.782;2023-02-12T16:06:01;103457.16;;;8.66;100.00
9257;BME280;4665;51.368;6.782;2023-02-12T16:08:28;103447.00;;;8.57;100.00
9257;BME280;4665;51.368;6.782;2023-02-12T16:10:56;103454.81;;;8.60;100.00
9257;BME280;4665;51.368;6.782;2023-02-12T16:13:47;103464.34;;;8.64;100.00
9257;BME280;4665;51.368;6.782;2023-02-12T16:18:40;103438.41;;;8.52;100.00
9257;BME280;4665;51.368;6.782;2023-02-12T16:21:12;103439.31;;;8.51;100.00
9257;BME280;4665;51.368;6.782;2023-02-12T16:23:47;103465.44;;;8.60;100.00
9257;BME280;4665;51.368;6.782;2023-02-12T16:26:19;103442.13;;;8.48;100.00
9257;BME280;4665;51.368;6.782;2023-02-12T16:28:47;103448.47;;;8.45;100.00
9257;BME280;4665;51.368;6.782;2023-02-12T16:31:14;103472.72;;;8.56;100.00
9257;BME280;4665;51.368;6.782;2023-02-12T16:33:41;103464.97;;;8.52;100.00
9257;BME280;4665;51.368;6.782;2023-02-12T16:38:54;103447.88;;;8.38;100.00
9257;BME280;4665;51.368;6.782;2023-02-12T16:46:47;103461.81;;;8.43;100.00
9257;BME280;4665;51.368;6.782;2023-02-12T16:49:18;103459.34;;;8.39;100.00
9257;BME280;4665;51.368;6.782;2023-02-12T16:51:46;103481.19;;;8.46;100.00
9257;BME280;4665;51.368;6.782;2023-02-12T16:54:32;103459.41;;;8.37;100.00
9257;BME280;4665;51.368;6.782;2023-02-12T16:56:59;103472.44;;;8.43;100.00
9257;BME280;4665;51.368;6.782;2023-02-12T16:59:25;103463.94;;;8.35;100.00
9257;BME280;4665;51.368;6.782;2023-02-12T17:04:23;103450.19;;;8.27;100.00
9257;BME280;4665;51.368;6.782;2023-02-12T17:06:48;103465.25;;;8.27;100.00
9257;BME280;4665;51.368;6.782;2023-02-12T17:09:14;103466.28;;;8.24;100.00
9257;BME280;4665;51.368;6.782;2023-02-12T17:11:39;103475.00;;;8.26;100.00
9257;BME280;4665;51.368;6.782;2023-02-12T17:14:09;103481.25;;;8.25;100.00
9257;BME280;4665;51.368;6.782;2023-02-12T17:16:38;103483.75;;;8.28;100.00
9257;BME280;4665;51.368;6.782;2023-02-12T17:19:03;103471.59;;;8.24;100.00
9257;BME280;4665;51.368;6.782;2023-02-12T17:21:34;103488.94;;;8.31;100.00
9257;BME280;4665;51.368;6.782;2023-02-12T17:26:38;103468.44;;;8.16;100.00
9257;BME280;4665;51.368;6.782;2023-02-12T17:29:04;103468.59;;;8.13;100.00
9257;BME280;4665;51.368;6.782;2023-02-12T17:31:33;103485.94;;;8.20;100.00
9257;BME280;4665;51.368;6.782;2023-02-12T17:33:59;103487.66;;;8.21;100.00
9257;BME280;4665;51.368;6.782;2023-02-12T17:36:25;103499.16;;;8.21;100.00
9257;BME280;4665;51.368;6.782;2023-02-12T17:38:50;103481.00;;;8.12;100.00
9257;BME280;4665;51.368;6.782;2023-02-12T17:41:16;103478.41;;;8.11;100.00